createdAt,value
2016-12-08T00:00:33.282Z,1021.97
2016-12-08T00:01:33.305Z,1021.94
2016-12-08T00:02:33.320Z,1021.97
2016-12-08T00:03:33.336Z,1021.97
2016-12-08T00:04:33.353Z,1021.93
2016-12-08T00:05:33.371Z,1021.89
2016-12-08T00:06:33.391Z,1021.91
2016-12-08T00:08:33.425Z,1021.91
2016-12-08T00:09:33.441Z,1021.89
2016-12-08T00:10:33.461Z,1021.91
2016-12-08T00:11:33.476Z,1021.87
2016-12-08T00:12:33.496Z,1021.9
2016-12-08T00:13:33.511Z,1021.91
2016-12-08T00:14:33.531Z,1021.9
2016-12-08T00:15:33.548Z,1021.92
2016-12-08T00:16:33.566Z,1021.9
2016-12-08T00:17:33.584Z,1021.92
2016-12-08T00:18:33.700Z,1021.83
2016-12-08T00:19:33.617Z,1021.9
2016-12-08T00:20:33.637Z,1021.87
2016-12-08T00:21:33.652Z,1021.87
2016-12-08T00:22:33.671Z,1021.91
2016-12-08T00:24:33.707Z,1021.85
2016-12-08T00:25:33.725Z,1021.89
2016-12-08T00:26:33.739Z,1021.85
2016-12-08T00:27:33.758Z,1021.78
2016-12-08T00:28:33.777Z,1021.79
2016-12-08T00:29:33.792Z,1021.78
2016-12-08T00:30:33.810Z,1021.8
2016-12-08T00:31:33.832Z,1021.79
2016-12-08T00:32:33.846Z,1021.72
2016-12-08T00:33:33.865Z,1021.75
2016-12-08T00:34:33.883Z,1021.71
2016-12-08T00:35:33.901Z,1021.68
2016-12-08T00:36:33.918Z,1021.65
2016-12-08T00:37:33.934Z,1021.65
2016-12-08T00:39:33.972Z,1021.63
2016-12-08T00:40:33.989Z,1021.64
2016-12-08T00:41:34.005Z,1021.62
2016-12-08T00:42:34.025Z,1021.68
2016-12-08T00:43:34.044Z,1021.7
2016-12-08T00:44:34.057Z,1021.7
2016-12-08T00:45:34.078Z,1021.77
2016-12-08T00:46:34.093Z,1021.82
2016-12-08T00:47:34.112Z,1021.86
2016-12-08T00:48:34.130Z,1021.83
2016-12-08T00:49:34.246Z,1021.82
2016-12-08T00:50:34.166Z,1021.85
2016-12-08T00:51:34.180Z,1021.85
2016-12-08T00:52:34.198Z,1021.9
2016-12-08T00:53:34.216Z,1021.82
2016-12-08T00:54:34.236Z,1021.83
2016-12-08T00:55:34.253Z,1021.93
2016-12-08T00:56:34.271Z,1021.89
2016-12-08T00:57:34.287Z,1021.88
2016-12-08T00:58:34.306Z,1021.87
2016-12-08T00:59:34.324Z,1021.91
2016-12-08T01:00:34.342Z,1021.88
2016-12-08T01:01:34.360Z,1021.85
2016-12-08T01:02:34.374Z,1021.92
2016-12-08T01:03:34.393Z,1021.91
2016-12-08T01:04:34.412Z,1021.87
2016-12-08T01:05:34.428Z,1021.84
2016-12-08T01:06:34.447Z,1021.88
2016-12-08T01:07:34.465Z,1021.89
2016-12-08T01:08:34.481Z,1021.92
2016-12-08T01:09:34.499Z,1021.9
2016-12-08T01:11:34.533Z,1021.91
2016-12-08T01:12:34.553Z,1021.93
2016-12-08T01:13:34.568Z,1021.95
2016-12-08T01:14:34.588Z,1021.88
2016-12-08T01:15:34.606Z,1021.82
2016-12-08T01:16:34.622Z,1021.84
2016-12-08T01:17:34.641Z,1021.86
2016-12-08T01:18:34.658Z,1021.83
2016-12-08T01:19:34.674Z,1021.77
2016-12-08T01:20:34.691Z,1021.78
2016-12-08T01:21:34.709Z,1021.77
2016-12-08T01:22:34.729Z,1021.72
2016-12-08T01:23:34.747Z,1021.67
2016-12-08T01:24:34.762Z,1021.73
2016-12-08T01:25:34.782Z,1021.73
2016-12-08T01:27:34.817Z,1021.72
2016-12-08T01:28:34.835Z,1021.67
2016-12-08T01:29:34.850Z,1021.78
2016-12-08T01:30:34.869Z,1021.73
2016-12-08T01:31:34.885Z,1021.71
2016-12-08T01:32:34.905Z,1021.72
2016-12-08T01:33:34.923Z,1021.68
2016-12-08T01:34:34.939Z,1021.68
2016-12-08T01:35:34.958Z,1021.67
2016-12-08T01:36:34.973Z,1021.71
2016-12-08T01:37:34.991Z,1021.68
2016-12-08T01:38:35.011Z,1021.7
2016-12-08T01:39:35.030Z,1021.71
2016-12-08T01:40:35.044Z,1021.62
2016-12-08T01:41:35.062Z,1021.62
2016-12-08T01:43:35.098Z,1021.63
2016-12-08T01:44:35.117Z,1021.61
2016-12-08T01:45:35.134Z,1021.56
2016-12-08T01:46:35.149Z,1021.56
2016-12-08T01:47:35.169Z,1021.53
2016-12-08T01:48:35.187Z,1021.54
2016-12-08T01:49:35.203Z,1021.54
2016-12-08T01:50:35.219Z,1021.6
2016-12-08T01:51:35.237Z,1021.55
2016-12-08T01:52:35.255Z,1021.56
2016-12-08T01:53:35.273Z,1021.56
2016-12-08T01:54:35.289Z,1021.61
2016-12-08T01:55:35.307Z,1021.6
2016-12-08T01:56:35.376Z,1021.6
2016-12-08T01:57:35.343Z,1021.54
2016-12-08T01:59:35.376Z,1021.58
2016-12-08T02:00:35.393Z,1021.63
2016-12-08T02:01:35.412Z,1021.53
2016-12-08T02:02:35.430Z,1021.57
2016-12-08T02:03:35.448Z,1021.61
2016-12-08T02:04:35.465Z,1021.56
2016-12-08T02:05:35.480Z,1021.54
2016-12-08T02:06:35.550Z,1021.59
2016-12-08T02:07:35.517Z,1021.57
2016-12-08T02:08:35.534Z,1021.51
2016-12-08T02:09:35.552Z,1021.49
2016-12-08T02:10:35.570Z,1021.52
2016-12-08T02:11:35.587Z,1021.49
2016-12-08T02:12:35.605Z,1021.55
2016-12-08T02:14:35.640Z,1021.48
2016-12-08T02:15:35.657Z,1021.41
2016-12-08T02:16:35.674Z,1021.31
2016-12-08T02:17:35.692Z,1021.35
2016-12-08T02:18:35.708Z,1021.34
2016-12-08T02:19:35.726Z,1021.38
2016-12-08T02:20:35.744Z,1021.37
2016-12-08T02:21:35.760Z,1021.35
2016-12-08T02:22:35.776Z,1021.41
2016-12-08T02:23:35.796Z,1021.43
2016-12-08T02:24:35.814Z,1021.45
2016-12-08T02:25:35.832Z,1021.48
2016-12-08T02:26:35.849Z,1021.39
2016-12-08T02:27:35.866Z,1021.42
2016-12-08T02:28:35.882Z,1021.39
2016-12-08T02:29:35.900Z,1021.41
2016-12-08T02:30:35.919Z,1021.42
2016-12-08T02:31:35.957Z,1021.42
2016-12-08T02:32:35.954Z,1021.39
2016-12-08T02:33:35.969Z,1021.37
2016-12-08T02:34:35.987Z,1021.35
2016-12-08T02:35:36.005Z,1021.36
2016-12-08T02:36:36.023Z,1021.37
2016-12-08T02:37:36.040Z,1021.31
2016-12-08T02:38:36.059Z,1021.26
2016-12-08T02:39:36.077Z,1021.28
2016-12-08T02:40:36.094Z,1021.25
2016-12-08T02:41:36.112Z,1021.28
2016-12-08T02:42:36.130Z,1021.27
2016-12-08T02:43:36.147Z,1021.25
2016-12-08T02:44:36.164Z,1021.27
2016-12-08T02:46:36.197Z,1021.27
2016-12-08T02:47:36.217Z,1021.26
2016-12-08T02:48:36.232Z,1021.26
2016-12-08T02:49:36.251Z,1021.23
2016-12-08T02:50:36.269Z,1021.22
2016-12-08T02:51:36.285Z,1021.23
2016-12-08T02:52:36.304Z,1021.21
2016-12-08T02:53:36.322Z,1021.21
2016-12-08T02:54:36.339Z,1021.27
2016-12-08T02:55:36.356Z,1021.23
2016-12-08T02:56:36.372Z,1021.2
2016-12-08T02:57:36.390Z,1021.21
2016-12-08T02:58:36.408Z,1021.15
2016-12-08T02:59:36.424Z,1021.1
2016-12-08T03:00:36.442Z,1021.04
2016-12-08T03:02:36.477Z,1021.05
2016-12-08T03:03:36.494Z,1021.07
2016-12-08T03:04:36.512Z,1021.09
2016-12-08T03:05:36.532Z,1021.04
2016-12-08T03:06:36.546Z,1021
2016-12-08T03:07:36.564Z,1020.97
2016-12-08T03:08:36.584Z,1021.04
2016-12-08T03:09:36.601Z,1021.07
2016-12-08T03:10:36.616Z,1021.07
2016-12-08T03:11:36.636Z,1021.1
2016-12-08T03:12:36.653Z,1021.12
2016-12-08T03:13:36.669Z,1021.17
2016-12-08T03:14:36.688Z,1021.12
2016-12-08T03:15:36.704Z,1021.09
2016-12-08T03:16:36.721Z,1021.09
2016-12-08T03:18:36.756Z,1021.06
2016-12-08T03:19:36.773Z,1021.09
2016-12-08T03:20:36.791Z,1021.07
2016-12-08T03:21:36.810Z,1021.07
2016-12-08T03:22:36.828Z,1021.07
2016-12-08T03:23:36.843Z,1021.08
2016-12-08T03:24:36.863Z,1021.08
2016-12-08T03:25:36.878Z,1021.14
2016-12-08T03:26:36.898Z,1021.17
2016-12-08T03:27:36.918Z,1021.14
2016-12-08T03:28:36.932Z,1021.13
2016-12-08T03:29:36.950Z,1021.12
2016-12-08T03:30:36.968Z,1021.07
2016-12-08T03:31:36.985Z,1021.04
2016-12-08T03:32:37.000Z,1021.03
2016-12-08T03:34:37.035Z,1021.04
2016-12-08T03:35:37.054Z,1020.96
2016-12-08T03:36:37.072Z,1021.01
2016-12-08T03:37:37.087Z,1020.98
2016-12-08T03:38:37.106Z,1020.99
2016-12-08T03:39:37.121Z,1020.96
2016-12-08T03:40:37.138Z,1020.88
2016-12-08T03:41:37.158Z,1020.9
2016-12-08T03:42:37.174Z,1020.92
2016-12-08T03:43:37.190Z,1020.92
2016-12-08T03:44:37.207Z,1020.84
2016-12-08T03:45:37.225Z,1020.8
2016-12-08T03:46:37.242Z,1020.8
2016-12-08T03:47:37.260Z,1020.73
2016-12-08T03:49:37.295Z,1020.75
2016-12-08T03:50:37.312Z,1020.76
2016-12-08T03:51:37.380Z,1020.74
2016-12-08T03:52:37.347Z,1020.73
2016-12-08T03:53:37.365Z,1020.76
2016-12-08T03:54:37.382Z,1020.73
2016-12-08T03:55:37.400Z,1020.75
2016-12-08T03:56:37.417Z,1020.78
2016-12-08T03:57:37.434Z,1020.76
2016-12-08T03:58:37.453Z,1020.77
2016-12-08T03:59:37.470Z,1020.73
2016-12-08T04:00:37.487Z,1020.76
2016-12-08T04:01:37.504Z,1020.72
2016-12-08T04:02:37.522Z,1020.73
2016-12-08T04:03:37.542Z,1020.74
2016-12-08T04:04:37.557Z,1020.71
2016-12-08T04:05:37.574Z,1020.72
2016-12-08T04:06:37.592Z,1020.71
2016-12-08T04:07:37.610Z,1020.69
2016-12-08T04:08:37.626Z,1020.65
2016-12-08T04:09:37.644Z,1020.63
2016-12-08T04:10:37.662Z,1020.63
2016-12-08T04:11:37.680Z,1020.59
2016-12-08T04:12:37.696Z,1020.61
2016-12-08T04:13:37.714Z,1020.65
2016-12-08T04:14:37.732Z,1020.6
2016-12-08T04:15:37.749Z,1020.64
2016-12-08T04:16:37.766Z,1020.69
2016-12-08T04:17:37.784Z,1020.68
2016-12-08T04:18:37.802Z,1020.67
2016-12-08T04:19:37.819Z,1020.69
2016-12-08T04:21:37.855Z,1020.65
2016-12-08T04:22:37.872Z,1020.67
2016-12-08T04:23:37.889Z,1020.63
2016-12-08T04:24:37.906Z,1020.63
2016-12-08T04:25:37.924Z,1020.66
2016-12-08T04:26:37.941Z,1020.59
2016-12-08T04:27:37.959Z,1020.62
2016-12-08T04:28:37.976Z,1020.61
2016-12-08T04:29:37.994Z,1020.63
2016-12-08T04:30:38.011Z,1020.65
2016-12-08T04:31:38.029Z,1020.67
2016-12-08T04:32:38.046Z,1020.64
2016-12-08T04:33:38.064Z,1020.65
2016-12-08T04:34:38.080Z,1020.66
2016-12-08T04:35:38.099Z,1020.69
2016-12-08T04:37:38.135Z,1020.71
2016-12-08T04:38:38.152Z,1020.74
2016-12-08T04:39:38.168Z,1020.78
2016-12-08T04:40:38.186Z,1020.75
2016-12-08T04:41:38.203Z,1020.74
2016-12-08T04:42:38.220Z,1020.76
2016-12-08T04:43:38.239Z,1020.78
2016-12-08T04:44:38.256Z,1020.76
2016-12-08T04:45:38.273Z,1020.72
2016-12-08T04:46:38.291Z,1020.69
2016-12-08T04:47:38.308Z,1020.67
2016-12-08T04:48:38.326Z,1020.66
2016-12-08T04:49:38.343Z,1020.62
2016-12-08T04:50:38.362Z,1020.67
2016-12-08T04:51:38.379Z,1020.6
2016-12-08T04:53:38.413Z,1020.57
2016-12-08T04:54:38.431Z,1020.62
2016-12-08T04:55:38.449Z,1020.65
2016-12-08T04:56:38.466Z,1020.66
2016-12-08T04:57:38.483Z,1020.68
2016-12-08T04:58:38.501Z,1020.65
2016-12-08T04:59:38.519Z,1020.69
2016-12-08T05:00:38.536Z,1020.64
2016-12-08T05:01:38.553Z,1020.69
2016-12-08T05:02:38.571Z,1020.66
2016-12-08T05:03:38.588Z,1020.67
2016-12-08T05:04:38.606Z,1020.69
2016-12-08T05:05:38.624Z,1020.73
2016-12-08T05:06:38.641Z,1020.76
2016-12-08T05:07:38.658Z,1020.74
2016-12-08T05:09:38.694Z,1020.73
2016-12-08T05:10:38.712Z,1020.7
2016-12-08T05:11:38.729Z,1020.67
2016-12-08T05:12:38.746Z,1020.65
2016-12-08T05:13:38.763Z,1020.63
2016-12-08T05:14:38.781Z,1020.64
2016-12-08T05:15:38.798Z,1020.71
2016-12-08T05:16:38.817Z,1020.72
2016-12-08T05:17:38.834Z,1020.7
2016-12-08T05:18:38.851Z,1020.67
2016-12-08T05:19:38.869Z,1020.68
2016-12-08T05:20:38.886Z,1020.74
2016-12-08T05:21:38.904Z,1020.63
2016-12-08T05:22:38.927Z,1020.71
2016-12-08T05:24:38.958Z,1020.72
2016-12-08T05:25:38.977Z,1020.71
2016-12-08T05:26:38.994Z,1020.69
2016-12-08T05:27:39.012Z,1020.7
2016-12-08T05:28:39.030Z,1020.67
2016-12-08T05:29:39.045Z,1020.66
2016-12-08T05:30:39.063Z,1020.64
2016-12-08T05:31:39.080Z,1020.65
2016-12-08T05:32:39.099Z,1020.65
2016-12-08T05:33:39.115Z,1020.65
2016-12-08T05:34:39.133Z,1020.65
2016-12-08T05:35:39.153Z,1020.61
2016-12-08T05:36:39.168Z,1020.59
2016-12-08T05:37:39.186Z,1020.61
2016-12-08T05:38:39.203Z,1020.59
2016-12-08T05:39:39.221Z,1020.65
2016-12-08T05:40:39.238Z,1020.63
2016-12-08T05:41:39.258Z,1020.63
2016-12-08T05:42:39.276Z,1020.64
2016-12-08T05:43:39.293Z,1020.59
2016-12-08T05:44:39.309Z,1020.58
2016-12-08T05:45:39.328Z,1020.6
2016-12-08T05:46:39.344Z,1020.53
2016-12-08T05:47:39.363Z,1020.58
2016-12-08T05:48:39.380Z,1020.56
2016-12-08T05:49:39.397Z,1020.62
2016-12-08T05:50:39.417Z,1020.54
2016-12-08T05:51:39.433Z,1020.53
2016-12-08T05:52:39.449Z,1020.58
2016-12-08T05:53:39.469Z,1020.53
2016-12-08T05:54:39.484Z,1020.56
2016-12-08T05:56:39.521Z,1020.56
2016-12-08T05:57:39.539Z,1020.66
2016-12-08T05:58:39.556Z,1020.63
2016-12-08T05:59:39.572Z,1020.62
2016-12-08T06:00:39.592Z,1020.64
2016-12-08T06:01:39.607Z,1020.63
2016-12-08T06:02:39.626Z,1020.62
2016-12-08T06:03:39.644Z,1020.6
2016-12-08T06:04:39.662Z,1020.6
2016-12-08T06:05:39.677Z,1020.57
2016-12-08T06:06:39.696Z,1020.6
2016-12-08T06:07:39.715Z,1020.63
2016-12-08T06:08:39.730Z,1020.63
2016-12-08T06:09:39.747Z,1020.6
2016-12-08T06:10:39.767Z,1020.65
2016-12-08T06:12:39.803Z,1020.7
2016-12-08T06:13:39.819Z,1020.68
2016-12-08T06:14:39.837Z,1020.67
2016-12-08T06:15:39.855Z,1020.75
2016-12-08T06:16:39.872Z,1020.71
2016-12-08T06:17:39.888Z,1020.72
2016-12-08T06:18:39.907Z,1020.74
2016-12-08T06:19:39.924Z,1020.73
2016-12-08T06:20:39.940Z,1020.73
2016-12-08T06:21:39.960Z,1020.75
2016-12-08T06:22:39.976Z,1020.78
2016-12-08T06:23:39.993Z,1020.82
2016-12-08T06:24:40.010Z,1020.88
2016-12-08T06:25:40.028Z,1020.85
2016-12-08T06:26:40.048Z,1020.87
2016-12-08T06:28:40.082Z,1020.73
2016-12-08T06:29:40.098Z,1020.77
2016-12-08T06:30:40.116Z,1020.72
2016-12-08T06:31:40.133Z,1020.73
2016-12-08T06:32:40.152Z,1020.69
2016-12-08T06:33:40.169Z,1020.66
2016-12-08T06:34:40.189Z,1020.59
2016-12-08T06:35:40.205Z,1020.57
2016-12-08T06:36:40.223Z,1020.54
2016-12-08T06:37:40.239Z,1020.55
2016-12-08T06:38:40.255Z,1020.6
2016-12-08T06:39:40.275Z,1020.57
2016-12-08T06:40:40.293Z,1020.55
2016-12-08T06:41:40.311Z,1020.61
2016-12-08T06:42:40.326Z,1020.57
2016-12-08T06:44:40.364Z,1020.57
2016-12-08T06:45:40.379Z,1020.58
2016-12-08T06:46:40.396Z,1020.58
2016-12-08T06:47:40.416Z,1020.55
2016-12-08T06:48:40.434Z,1020.6
2016-12-08T06:49:40.449Z,1020.65
2016-12-08T06:50:40.470Z,1020.6
2016-12-08T06:51:40.489Z,1020.62
2016-12-08T06:52:40.501Z,1020.64
2016-12-08T06:53:40.521Z,1020.6
2016-12-08T06:54:40.536Z,1020.62
2016-12-08T06:55:40.554Z,1020.58
2016-12-08T06:56:40.572Z,1020.58
2016-12-08T06:57:40.592Z,1020.55
2016-12-08T06:59:40.627Z,1020.52
2016-12-08T07:00:40.644Z,1020.57
2016-12-08T07:01:40.680Z,1020.56
2016-12-08T07:02:40.679Z,1020.54
2016-12-08T07:03:40.696Z,1020.51
2016-12-08T07:04:40.713Z,1020.61
2016-12-08T07:05:40.730Z,1020.58
2016-12-08T07:06:40.748Z,1020.64
2016-12-08T07:07:40.764Z,1020.63
2016-12-08T07:08:40.782Z,1020.61
2016-12-08T07:09:40.801Z,1020.58
2016-12-08T07:10:40.819Z,1020.54
2016-12-08T07:11:40.834Z,1020.52
2016-12-08T07:12:40.853Z,1020.51
2016-12-08T07:13:40.873Z,1020.47
2016-12-08T07:14:40.888Z,1020.43
2016-12-08T07:15:40.904Z,1020.49
2016-12-08T07:16:40.923Z,1020.57
2016-12-08T07:17:40.939Z,1020.58
2016-12-08T07:18:40.958Z,1020.53
2016-12-08T07:19:40.974Z,1020.52
2016-12-08T07:20:40.991Z,1020.57
2016-12-08T07:21:41.011Z,1020.5
2016-12-08T07:22:41.028Z,1020.5
2016-12-08T07:23:41.044Z,1020.53
2016-12-08T07:24:41.064Z,1020.47
2016-12-08T07:25:41.082Z,1020.47
2016-12-08T07:26:41.099Z,1020.41
2016-12-08T07:27:41.116Z,1020.42
2016-12-08T07:28:41.134Z,1020.43
2016-12-08T07:29:41.151Z,1020.44
2016-12-08T07:31:41.184Z,1020.51
2016-12-08T07:32:41.202Z,1020.56
2016-12-08T07:33:41.221Z,1020.55
2016-12-08T07:34:41.239Z,1020.53
2016-12-08T07:35:41.257Z,1020.52
2016-12-08T07:36:41.273Z,1020.54
2016-12-08T07:37:41.292Z,1020.54
2016-12-08T07:38:41.310Z,1020.51
2016-12-08T07:39:41.325Z,1020.55
2016-12-08T07:40:41.343Z,1020.61
2016-12-08T07:41:41.362Z,1020.65
2016-12-08T07:42:41.380Z,1020.61
2016-12-08T07:43:41.398Z,1020.68
2016-12-08T07:44:41.415Z,1020.63
2016-12-08T07:45:41.431Z,1020.57
2016-12-08T07:47:41.469Z,1020.62
2016-12-08T07:48:41.485Z,1020.55
2016-12-08T07:49:41.502Z,1020.64
2016-12-08T07:50:41.524Z,1020.59
2016-12-08T07:51:41.537Z,1020.63
2016-12-08T07:52:41.558Z,1020.6
2016-12-08T07:53:41.573Z,1020.58
2016-12-08T07:54:41.594Z,1020.53
2016-12-08T07:55:41.610Z,1020.58
2016-12-08T07:56:41.627Z,1020.56
2016-12-08T07:57:41.647Z,1020.57
2016-12-08T07:58:41.663Z,1020.61
2016-12-08T07:59:41.680Z,1020.68
2016-12-08T08:00:41.699Z,1020.59
2016-12-08T08:01:41.718Z,1020.62
2016-12-08T08:03:41.754Z,1020.62
2016-12-08T08:04:41.773Z,1020.56
2016-12-08T08:05:41.791Z,1020.56
2016-12-08T08:06:41.818Z,1020.48
2016-12-08T08:07:41.827Z,1020.49
2016-12-08T08:08:41.845Z,1020.43
2016-12-08T08:09:41.864Z,1020.43
2016-12-08T08:10:42.082Z,1020.46
2016-12-08T08:11:41.899Z,1020.49
2016-12-08T08:12:41.918Z,1020.44
2016-12-08T08:13:41.934Z,1020.43
2016-12-08T08:14:41.952Z,1020.49
2016-12-08T08:15:41.973Z,1020.49
2016-12-08T08:16:41.991Z,1020.51
2016-12-08T08:17:42.009Z,1020.41
2016-12-08T08:19:42.047Z,1020.47
2016-12-08T08:20:42.065Z,1020.45
2016-12-08T08:21:42.083Z,1020.38
2016-12-08T08:22:42.102Z,1020.37
2016-12-08T08:23:42.120Z,1020.39
2016-12-08T08:24:42.143Z,1020.35
2016-12-08T08:25:42.155Z,1020.35
2016-12-08T08:26:42.174Z,1020.4
2016-12-08T08:27:42.195Z,1020.51
2016-12-08T08:28:42.213Z,1020.45
2016-12-08T08:29:42.230Z,1020.36
2016-12-08T08:30:42.251Z,1020.53
2016-12-08T08:31:42.267Z,1020.62
2016-12-08T08:32:42.294Z,1020.57
2016-12-08T08:34:42.326Z,1020.6
2016-12-08T08:35:42.344Z,1020.58
2016-12-08T08:36:42.361Z,1020.62
2016-12-08T08:37:42.383Z,1020.54
2016-12-08T08:38:42.402Z,1020.58
2016-12-08T08:39:42.420Z,1020.64
2016-12-08T08:40:42.437Z,1020.65
2016-12-08T08:41:42.457Z,1020.65
2016-12-08T08:42:42.478Z,1020.7
2016-12-08T08:43:42.493Z,1020.65
2016-12-08T08:44:42.565Z,1020.56
2016-12-08T08:45:42.532Z,1020.61
2016-12-08T08:46:42.550Z,1020.58
2016-12-08T08:47:42.571Z,1020.53
2016-12-08T08:48:42.589Z,1020.55
2016-12-08T08:49:42.613Z,1020.58
2016-12-08T08:50:42.627Z,1020.61
2016-12-08T08:51:42.646Z,1020.63
2016-12-08T08:52:42.669Z,1020.58
2016-12-08T08:53:42.686Z,1020.55
2016-12-08T08:54:42.704Z,1020.57
2016-12-08T08:55:42.723Z,1020.63
2016-12-08T08:56:42.743Z,1020.65
2016-12-08T08:57:42.764Z,1020.59
2016-12-08T08:58:42.781Z,1020.59
2016-12-08T08:59:42.801Z,1020.57
2016-12-08T09:00:42.821Z,1020.5
2016-12-08T09:01:42.840Z,1020.49
2016-12-08T09:02:42.862Z,1020.46
2016-12-08T09:03:42.879Z,1020.49
2016-12-08T09:04:42.900Z,1020.45
2016-12-08T09:06:42.940Z,1020.41
2016-12-08T09:07:42.960Z,1020.4
2016-12-08T09:08:42.978Z,1020.37
2016-12-08T09:09:42.996Z,1020.46
2016-12-08T09:10:43.016Z,1020.43
2016-12-08T09:11:43.038Z,1020.45
2016-12-08T09:12:43.055Z,1020.48
2016-12-08T09:13:43.075Z,1020.54
2016-12-08T09:14:43.097Z,1020.49
2016-12-08T09:15:43.114Z,1020.54
2016-12-08T09:16:43.136Z,1020.54
2016-12-08T09:17:43.156Z,1020.53
2016-12-08T09:18:43.176Z,1020.54
2016-12-08T09:19:43.195Z,1020.54
2016-12-08T09:20:43.213Z,1020.52
2016-12-08T09:22:43.253Z,1020.51
2016-12-08T09:23:43.276Z,1020.52
2016-12-08T09:24:43.292Z,1020.53
2016-12-08T09:25:43.314Z,1020.53
2016-12-08T09:26:43.333Z,1020.6
2016-12-08T09:27:43.352Z,1020.55
2016-12-08T09:28:43.374Z,1020.58
2016-12-08T09:29:43.392Z,1020.57
2016-12-08T09:30:43.411Z,1020.61
2016-12-08T09:31:43.431Z,1020.6
2016-12-08T09:32:43.451Z,1020.59
2016-12-08T09:33:43.473Z,1020.62
2016-12-08T09:34:43.491Z,1020.62
2016-12-08T09:35:43.511Z,1020.57
2016-12-08T09:36:43.532Z,1020.55
2016-12-08T09:38:43.571Z,1020.62
2016-12-08T09:39:43.593Z,1020.67
2016-12-08T09:40:43.613Z,1020.65
2016-12-08T09:41:43.633Z,1020.67
2016-12-08T09:42:43.651Z,1020.63
2016-12-08T09:43:43.674Z,1020.69
2016-12-08T09:44:43.692Z,1020.59
2016-12-08T09:45:43.713Z,1020.59
2016-12-08T09:46:43.733Z,1020.61
2016-12-08T09:47:43.752Z,1020.56
2016-12-08T09:48:43.773Z,1020.52
2016-12-08T09:49:43.791Z,1020.48
2016-12-08T09:50:43.814Z,1020.5
2016-12-08T09:51:43.836Z,1020.47
2016-12-08T09:52:43.854Z,1020.56
2016-12-08T09:54:43.892Z,1020.52
2016-12-08T09:55:43.913Z,1020.58
2016-12-08T09:56:43.932Z,1020.56
2016-12-08T09:57:43.953Z,1020.58
2016-12-08T09:58:43.973Z,1020.56
2016-12-08T09:59:43.995Z,1020.61
2016-12-08T10:00:44.013Z,1020.59
2016-12-08T10:01:44.033Z,1020.58
2016-12-08T10:02:44.056Z,1020.65
2016-12-08T10:03:44.075Z,1020.65
2016-12-08T10:04:44.094Z,1020.62
2016-12-08T10:05:44.114Z,1020.65
2016-12-08T10:06:44.137Z,1020.58
2016-12-08T10:07:44.155Z,1020.61
2016-12-08T10:09:44.198Z,1020.61
2016-12-08T10:10:44.217Z,1020.59
2016-12-08T10:11:44.236Z,1020.64
2016-12-08T10:12:44.258Z,1020.55
2016-12-08T10:13:44.278Z,1020.55
2016-12-08T10:14:44.298Z,1020.52
2016-12-08T10:15:44.318Z,1020.5
2016-12-08T10:16:44.339Z,1020.52
2016-12-08T10:17:44.358Z,1020.53
2016-12-08T10:18:44.376Z,1020.56
2016-12-08T10:19:44.397Z,1020.53
2016-12-08T10:20:44.420Z,1020.48
2016-12-08T10:21:44.436Z,1020.45
2016-12-08T10:22:44.459Z,1020.4
2016-12-08T10:23:44.480Z,1020.38
2016-12-08T10:24:44.500Z,1020.4
2016-12-08T10:25:44.519Z,1020.35
2016-12-08T10:26:44.540Z,1020.4
2016-12-08T10:27:44.558Z,1020.38
2016-12-08T10:28:44.580Z,1020.33
2016-12-08T10:29:44.600Z,1020.37
2016-12-08T10:30:44.621Z,1020.37
2016-12-08T10:31:44.639Z,1020.34
2016-12-08T10:32:44.663Z,1020.34
2016-12-08T10:33:44.681Z,1020.36
2016-12-08T10:34:44.700Z,1020.27
2016-12-08T10:35:44.723Z,1020.35
2016-12-08T10:36:44.742Z,1020.28
2016-12-08T10:37:44.763Z,1020.24
2016-12-08T10:38:44.784Z,1020.2
2016-12-08T10:39:44.804Z,1020.2
2016-12-08T10:41:44.843Z,1020.22
2016-12-08T10:42:44.866Z,1020.16
2016-12-08T10:43:44.886Z,1020.17
2016-12-08T10:44:44.905Z,1020.2
2016-12-08T10:45:44.928Z,1020.16
2016-12-08T10:46:44.949Z,1020.14
2016-12-08T10:47:44.969Z,1020.16
2016-12-08T10:48:44.987Z,1020.18
2016-12-08T10:49:45.008Z,1020.19
2016-12-08T10:50:45.031Z,1020.14
2016-12-08T10:51:45.049Z,1020.2
2016-12-08T10:52:45.072Z,1020.21
2016-12-08T10:53:45.093Z,1020.22
2016-12-08T10:54:45.114Z,1020.19
2016-12-08T10:55:45.132Z,1020.26
2016-12-08T10:57:45.177Z,1020.24
2016-12-08T10:58:45.197Z,1020.29
2016-12-08T10:59:45.218Z,1020.21
2016-12-08T11:00:45.237Z,1020.13
2016-12-08T11:01:45.259Z,1020.1
2016-12-08T11:02:45.278Z,1020.05
2016-12-08T11:03:45.302Z,1020.06
2016-12-08T11:04:45.323Z,1020.02
2016-12-08T11:05:45.343Z,1020.07
2016-12-08T11:06:45.363Z,1019.98
2016-12-08T11:07:45.386Z,1020.01
2016-12-08T11:08:45.407Z,1019.97
2016-12-08T11:09:45.425Z,1019.92
2016-12-08T11:10:45.447Z,1019.95
2016-12-08T11:11:45.467Z,1019.87
2016-12-08T11:13:45.511Z,1019.85
2016-12-08T11:14:45.531Z,1019.88
2016-12-08T11:15:45.552Z,1019.8
2016-12-08T11:16:45.574Z,1019.79
2016-12-08T11:17:45.593Z,1019.82
2016-12-08T11:18:45.617Z,1019.89
2016-12-08T11:19:45.636Z,1019.96
2016-12-08T11:20:45.658Z,1019.92
2016-12-08T11:21:45.683Z,1019.97
2016-12-08T11:22:45.701Z,1019.88
2016-12-08T11:23:45.721Z,1019.91
2016-12-08T11:24:45.743Z,1019.91
2016-12-08T11:25:45.764Z,1019.94
2016-12-08T11:26:45.785Z,1019.97
2016-12-08T11:27:45.803Z,1019.91
2016-12-08T11:29:45.848Z,1019.9
2016-12-08T11:30:45.867Z,1019.9
2016-12-08T11:31:45.888Z,1019.85
2016-12-08T11:32:45.909Z,1019.83
2016-12-08T11:33:45.933Z,1019.86
2016-12-08T11:34:45.953Z,1019.87
2016-12-08T11:35:45.974Z,1019.88
2016-12-08T11:36:45.995Z,1019.83
2016-12-08T11:37:46.017Z,1019.79
2016-12-08T11:38:46.036Z,1019.83
2016-12-08T11:39:46.059Z,1019.85
2016-12-08T11:40:46.080Z,1019.8
2016-12-08T11:41:46.099Z,1019.83
2016-12-08T11:42:46.121Z,1019.83
2016-12-08T11:44:46.164Z,1019.72
2016-12-08T11:45:46.186Z,1019.79
2016-12-08T11:46:46.205Z,1019.67
2016-12-08T11:47:46.227Z,1019.7
2016-12-08T11:48:46.250Z,1019.65
2016-12-08T11:49:46.269Z,1019.59
2016-12-08T11:50:46.292Z,1019.56
2016-12-08T11:51:46.311Z,1019.54
2016-12-08T11:52:46.332Z,1019.48
2016-12-08T11:53:46.355Z,1019.55
2016-12-08T11:54:46.378Z,1019.54
2016-12-08T11:55:46.398Z,1019.52
2016-12-08T11:56:46.419Z,1019.43
2016-12-08T11:57:46.438Z,1019.43
2016-12-08T11:58:46.461Z,1019.4
2016-12-08T11:59:46.480Z,1019.32
2016-12-08T12:00:46.503Z,1019.4
2016-12-08T12:01:46.524Z,1019.45
2016-12-08T12:02:46.544Z,1019.4
2016-12-08T12:03:46.565Z,1019.44
2016-12-08T12:04:46.588Z,1019.44
2016-12-08T12:05:46.610Z,1019.47
2016-12-08T12:06:46.631Z,1019.5
2016-12-08T12:07:46.653Z,1019.51
2016-12-08T12:08:46.673Z,1019.46
2016-12-08T12:09:46.697Z,1019.53
2016-12-08T12:10:46.716Z,1019.48
2016-12-08T12:11:46.736Z,1019.52
2016-12-08T12:12:46.756Z,1019.48
2016-12-08T12:13:46.778Z,1019.48
2016-12-08T12:14:46.800Z,1019.46
2016-12-08T12:16:46.844Z,1019.52
2016-12-08T12:17:46.862Z,1019.41
2016-12-08T12:18:46.885Z,1019.46
2016-12-08T12:19:46.956Z,1019.36
2016-12-08T12:20:46.928Z,1019.39
2016-12-08T12:21:46.950Z,1019.33
2016-12-08T12:22:46.971Z,1019.36
2016-12-08T12:23:46.990Z,1019.28
2016-12-08T12:24:47.014Z,1019.31
2016-12-08T12:25:47.033Z,1019.29
2016-12-08T12:26:47.054Z,1019.3
2016-12-08T12:27:47.076Z,1019.26
2016-12-08T12:28:47.100Z,1019.3
2016-12-08T12:29:47.120Z,1019.23
2016-12-08T12:30:47.142Z,1019.22
2016-12-08T12:32:47.184Z,1019.29
2016-12-08T12:33:47.206Z,1019.36
2016-12-08T12:34:47.227Z,1019.34
2016-12-08T12:35:47.250Z,1019.36
2016-12-08T12:36:47.268Z,1019.4
2016-12-08T12:37:47.292Z,1019.35
2016-12-08T12:38:47.314Z,1019.36
2016-12-08T12:39:47.335Z,1019.35
2016-12-08T12:40:47.355Z,1019.4
2016-12-08T12:41:47.378Z,1019.46
2016-12-08T12:42:47.400Z,1019.39
2016-12-08T12:43:47.419Z,1019.4
2016-12-08T12:44:47.442Z,1019.43
2016-12-08T12:45:47.464Z,1019.37
2016-12-08T12:46:47.486Z,1019.37
2016-12-08T12:48:47.525Z,1019.4